createdAt,value
2023-05-05T00:06:58.458Z,12.7
2023-05-05T00:17:00.369Z,12.4
2023-05-05T00:27:01.431Z,12.2
2023-05-05T00:37:02.483Z,12.3
2023-05-05T00:47:04.092Z,12.2
2023-05-05T01:17:09.028Z,12.2
2023-05-05T01:27:10.822Z,12.5
2023-05-05T01:37:12.346Z,12.2
2023-05-05T01:47:13.749Z,11.7
2023-05-05T01:57:15.588Z,11.5
2023-05-05T02:17:19.151Z,11.6
2023-05-05T02:27:20.277Z,11.6
2023-05-05T02:37:22.236Z,11.6
2023-05-05T02:47:24.117Z,12.1
2023-05-05T02:57:25.689Z,12.2
2023-05-05T03:07:27.352Z,12.7
2023-05-05T03:17:28.577Z,13.4
2023-05-05T03:27:29.804Z,14
2023-05-05T03:37:30.980Z,14.7
2023-05-05T03:47:32.649Z,15
2023-05-05T03:57:33.981Z,15.1
2023-05-05T04:07:35.137Z,15
2023-05-05T04:17:37.078Z,14.9
2023-05-05T04:27:38.731Z,14.8
2023-05-05T04:37:40.652Z,14.5
2023-05-05T04:47:41.811Z,14.3
2023-05-05T04:57:42.861Z,14.3
2023-05-05T05:07:44.579Z,14.3
2023-05-05T05:17:45.822Z,14.3
2023-05-05T05:27:52.439Z,14.4
2023-05-05T05:37:48.921Z,14.9
2023-05-05T05:47:50.562Z,15.5
2023-05-05T05:57:52.477Z,15.8
2023-05-05T06:07:54.182Z,16.3
2023-05-05T06:17:55.822Z,16.7
2023-05-05T06:27:57.061Z,16.9
2023-05-05T06:37:58.885Z,16.8
2023-05-05T06:48:00.925Z,17
2023-05-05T06:58:02.292Z,17.5
2023-05-05T07:08:04.008Z,17.7
2023-05-05T07:18:05.400Z,18.1
2023-05-05T07:28:06.555Z,18.3
2023-05-05T07:38:08.774Z,17.9
2023-05-05T07:58:10.931Z,18
2023-05-05T08:08:12.317Z,18.5
2023-05-05T08:18:14.112Z,18.4
2023-05-05T08:28:15.466Z,18.2
2023-05-05T08:38:16.562Z,18.5
2023-05-05T08:48:17.994Z,18.8
2023-05-05T08:58:19.846Z,19.4
2023-05-05T09:08:21.690Z,19.5
2023-05-05T09:18:23.290Z,19.8
2023-05-05T09:28:24.377Z,20.4
2023-05-05T09:38:26.024Z,20.5
2023-05-05T09:48:27.347Z,20.7
2023-05-05T09:58:28.747Z,21.4
2023-05-05T10:08:29.956Z,21.2
2023-05-05T10:18:31.782Z,21.3
2023-05-05T10:28:33.227Z,20.7
2023-05-05T10:48:36.116Z,20
2023-05-05T10:58:47.414Z,21.1
2023-05-05T11:08:39.546Z,20.6
2023-05-05T11:18:41.422Z,20.7
2023-05-05T11:28:43.280Z,20.8
2023-05-05T11:38:44.368Z,21.3
2023-05-05T11:48:46.148Z,21
2023-05-05T13:49:06.136Z,16.2
2023-05-05T13:59:07.753Z,16.3
2023-05-05T14:09:09.616Z,16.4
2023-05-05T14:19:11.680Z,16.7
2023-05-05T14:29:13.055Z,16.8
2023-05-05T14:39:14.139Z,16.7
2023-05-05T14:49:15.256Z,16
2023-05-05T14:59:17.141Z,15.8
2023-05-05T15:09:18.402Z,15.2
2023-05-05T15:19:19.726Z,14.3
2023-05-05T15:29:20.870Z,13.4
2023-05-05T15:39:22.217Z,13.1
2023-05-05T15:49:24.256Z,12.9
2023-05-05T15:59:25.316Z,12.9
2023-05-05T16:09:27.274Z,13.1
2023-05-05T16:19:28.352Z,12.9
2023-05-05T16:29:30.097Z,12.8
2023-05-05T16:39:31.727Z,12.8
2023-05-05T16:49:33.375Z,12.8
2023-05-05T16:59:34.968Z,12.9
2023-05-05T17:09:36.475Z,13.2
2023-05-05T17:19:38.485Z,13.4
2023-05-05T17:29:40.458Z,13.4
2023-05-05T17:39:41.973Z,13.5
2023-05-05T17:49:43.189Z,13.8
2023-05-05T17:59:45.041Z,14.1
2023-05-05T18:40:35.387Z,13.1
2023-05-05T18:50:00.568Z,13
2023-05-05T19:00:01.770Z,12.6
2023-05-05T19:10:03.467Z,12.4
2023-05-05T19:30:06.711Z,12.2
2023-05-05T19:40:08.612Z,12.1
2023-05-05T19:50:09.942Z,11.8
2023-05-05T20:00:11.390Z,11.5
2023-05-05T20:10:12.523Z,11.2
2023-05-05T20:20:14.431Z,10.9
2023-05-05T20:30:16.106Z,10.3
2023-05-05T20:40:18.044Z,10.3
2023-05-05T20:50:19.530Z,10.4
2023-05-05T21:00:21.559Z,10.5
2023-05-05T21:10:22.905Z,10.4
2023-05-05T21:40:27.917Z,9.6
2023-05-05T22:00:30.489Z,9.2
2023-05-05T22:20:33.661Z,8.9
2023-05-05T22:30:35.200Z,9
2023-05-05T22:40:36.351Z,8.9
2023-05-05T22:50:37.912Z,8.7
2023-05-05T23:10:40.615Z,8.9
2023-05-05T23:20:42.420Z,8.8
2023-05-05T23:30:43.982Z,8.7
2023-05-05T23:40:45.307Z,8.8
2023-05-05T23:50:46.800Z,8.7
